createdAt,value
2017-05-06T00:01:38.544Z,69.60
2017-05-06T00:04:05.336Z,64.88
2017-05-06T00:06:32.120Z,75.27
2017-05-06T00:08:59.324Z,64.28
2017-05-06T00:11:26.108Z,68.38
2017-05-06T00:13:52.895Z,76.32
2017-05-06T00:16:20.172Z,67.42
2017-05-06T00:18:46.948Z,64.50
2017-05-06T00:21:13.715Z,71.88
2017-05-06T00:23:40.763Z,79.92
2017-05-06T00:26:07.537Z,67.32
2017-05-06T00:28:34.322Z,81.62
2017-05-06T00:31:02.252Z,82.05
2017-05-06T00:33:29.044Z,75.43
2017-05-06T00:35:55.829Z,87.77
2017-05-06T00:38:23.177Z,83.25
2017-05-06T00:40:49.964Z,82.45
2017-05-06T00:43:16.735Z,89.22
2017-05-06T00:45:44.094Z,97.75
2017-05-06T00:48:10.864Z,85.72
2017-05-06T00:50:37.644Z,81.00
2017-05-06T00:53:04.726Z,90.42
2017-05-06T00:55:31.525Z,72.17
2017-05-06T00:57:58.308Z,80.40
2017-05-06T01:00:25.675Z,91.45
2017-05-06T01:02:52.486Z,79.72
2017-05-06T01:05:19.271Z,91.72
2017-05-06T01:07:46.495Z,93.22
2017-05-06T01:10:13.285Z,77.57
2017-05-06T01:12:40.075Z,81.85
2017-05-06T01:15:07.269Z,105.23
2017-05-06T01:17:34.061Z,72.43
2017-05-06T01:20:00.850Z,89.87
2017-05-06T01:22:28.181Z,82.75
2017-05-06T01:24:54.961Z,102.68
2017-05-06T01:27:21.751Z,113.65
2017-05-06T01:29:49.332Z,96.35
2017-05-06T01:32:16.120Z,105.67
2017-05-06T01:34:42.925Z,107.78
2017-05-06T01:37:10.427Z,94.02
2017-05-06T01:39:37.212Z,105.03
2017-05-06T01:42:04.001Z,91.08
2017-05-06T01:44:31.073Z,116.53
2017-05-06T01:46:57.848Z,99.93
2017-05-06T01:49:24.653Z,116.18
2017-05-06T01:51:52.003Z,108.38
2017-05-06T01:54:18.794Z,100.92
2017-05-06T01:56:45.585Z,106.58
2017-05-06T01:59:12.840Z,112.95
2017-05-06T02:01:39.615Z,122.73
2017-05-06T02:04:06.388Z,110.88
2017-05-06T02:06:33.589Z,108.22
2017-05-06T02:09:00.367Z,99.10
2017-05-06T02:11:27.151Z,108.95
2017-05-06T02:13:54.361Z,81.95
2017-05-06T02:16:21.136Z,89.32
2017-05-06T02:18:47.921Z,110.13
2017-05-06T02:21:15.327Z,95.62
2017-05-06T02:23:42.116Z,126.05
2017-05-06T02:26:08.888Z,119.33
2017-05-06T02:28:36.172Z,149.55
2017-05-06T02:31:02.964Z,138.93
2017-05-06T02:33:29.753Z,101.17
2017-05-06T02:35:56.805Z,96.05
2017-05-06T02:38:23.602Z,122.28
2017-05-06T02:40:50.384Z,126.95
2017-05-06T02:43:17.842Z,125.03
2017-05-06T02:45:44.692Z,137.35
2017-05-06T02:48:11.467Z,131.35
2017-05-06T02:50:38.674Z,146.23
2017-05-06T02:53:05.444Z,118.08
2017-05-06T02:55:32.219Z,126.78
2017-05-06T02:57:59.593Z,130.42
2017-05-06T03:00:26.371Z,121.87
2017-05-06T03:02:53.166Z,137.67
2017-05-06T03:05:20.327Z,143.53
2017-05-06T03:07:47.108Z,156.93
2017-05-06T03:10:13.888Z,137.07
2017-05-06T03:12:40.960Z,158.58
2017-05-06T03:15:07.736Z,141.53
2017-05-06T03:17:34.524Z,129.83
2017-05-06T03:20:01.618Z,128.62
2017-05-06T03:22:28.391Z,143.05
2017-05-06T03:24:55.171Z,148.70
2017-05-06T03:27:22.239Z,122.77
2017-05-06T03:29:49.270Z,123.98
2017-05-06T03:32:16.065Z,92.90
2017-05-06T03:34:43.124Z,117.30
2017-05-06T03:37:09.895Z,121.25
2017-05-06T03:39:36.689Z,120.23
2017-05-06T03:42:03.803Z,118.13
2017-05-06T03:44:30.583Z,156.07
2017-05-06T03:46:57.370Z,141.85
2017-05-06T03:49:24.471Z,136.27
2017-05-06T03:51:51.258Z,185.88
2017-05-06T03:54:18.044Z,161.93
2017-05-06T03:56:45.129Z,174.08
2017-05-06T03:59:11.912Z,126.77
2017-05-06T04:01:38.704Z,149.38
2017-05-06T04:04:05.958Z,144.83
2017-05-06T04:06:32.739Z,126.60
2017-05-06T04:08:59.523Z,151.65
2017-05-06T04:11:27.505Z,131.07
2017-05-06T04:13:54.261Z,152.47
2017-05-06T04:16:21.037Z,163.58
2017-05-06T04:18:48.089Z,131.45
2017-05-06T04:21:14.857Z,129.53
2017-05-06T04:23:41.624Z,124.68
2017-05-06T04:26:08.690Z,125.88
2017-05-06T04:28:35.538Z,119.58
2017-05-06T04:31:02.304Z,134.05
2017-05-06T04:33:29.365Z,114.88
2017-05-06T04:35:56.133Z,120.13
2017-05-06T04:38:22.898Z,101.83
2017-05-06T04:40:49.942Z,93.38
2017-05-06T04:43:16.692Z,83.33
2017-05-06T04:45:43.441Z,76.23
2017-05-06T04:48:10.485Z,58.40
2017-05-06T04:50:37.241Z,57.17
2017-05-06T04:53:03.997Z,51.05
2017-05-06T04:55:31.055Z,51.83
2017-05-06T04:57:57.813Z,44.78
2017-05-06T05:00:24.573Z,54.52
2017-05-06T05:02:51.612Z,38.07
2017-05-06T05:05:18.386Z,36.68
2017-05-06T05:07:45.141Z,41.27
2017-05-06T05:10:12.488Z,50.80
2017-05-06T05:12:40.072Z,39.87
2017-05-06T05:15:07.069Z,36.70
2017-05-06T05:17:34.254Z,42.53
2017-05-06T05:20:01.268Z,42.58
2017-05-06T05:22:28.029Z,37.05
2017-05-06T05:24:55.086Z,41.55
2017-05-06T05:27:21.845Z,36.82
2017-05-06T05:29:48.588Z,37.27
2017-05-06T05:32:15.652Z,33.27
2017-05-06T05:34:42.417Z,34.67
2017-05-06T05:37:09.172Z,32.23
2017-05-06T05:39:36.337Z,34.53
2017-05-06T05:42:03.083Z,28.40
2017-05-06T05:44:29.844Z,30.88
2017-05-06T05:46:57.072Z,30.45
2017-05-06T05:49:23.825Z,30.45
2017-05-06T05:51:50.584Z,29.57
2017-05-06T05:54:17.659Z,31.10
2017-05-06T05:56:44.696Z,33.12
2017-05-06T05:59:11.930Z,30.77
2017-05-06T06:01:39.411Z,30.27
2017-05-06T06:04:06.165Z,29.53
2017-05-06T06:06:32.920Z,32.88
2017-05-06T06:09:00.057Z,26.72
2017-05-06T06:11:26.822Z,32.83
2017-05-06T06:13:53.584Z,32.35
2017-05-06T06:16:21.150Z,28.97
2017-05-06T06:18:47.902Z,28.58
2017-05-06T06:21:14.655Z,27.45
2017-05-06T06:23:41.739Z,29.50
2017-05-06T06:26:08.493Z,26.73
2017-05-06T06:28:35.249Z,33.42
2017-05-06T06:31:02.584Z,27.93
2017-05-06T06:33:29.336Z,25.13
2017-05-06T06:35:56.094Z,26.47
2017-05-06T06:38:24.047Z,26.02
2017-05-06T06:40:51.176Z,26.18
2017-05-06T06:43:17.940Z,27.22
2017-05-06T06:45:44.973Z,26.78
2017-05-06T06:48:11.739Z,25.77
2017-05-06T06:50:38.524Z,23.55
2017-05-06T06:53:06.460Z,23.12
2017-05-06T06:55:33.432Z,23.60
2017-05-06T06:58:00.180Z,27.48
2017-05-06T07:00:28.078Z,24.65
2017-05-06T07:02:54.840Z,25.22
2017-05-06T07:05:22.811Z,24.85
2017-05-06T07:07:50.358Z,23.03
2017-05-06T07:10:17.125Z,26.30
2017-05-06T07:12:44.234Z,23.53
2017-05-06T07:15:11.623Z,26.37
2017-05-06T07:17:38.730Z,25.12
2017-05-06T07:20:05.488Z,27.68
2017-05-06T07:22:32.966Z,26.93
2017-05-06T07:25:00.113Z,24.92
2017-05-06T07:27:27.756Z,25.68
2017-05-06T07:29:54.810Z,21.48
2017-05-06T07:32:21.792Z,23.43
2017-05-06T07:34:48.549Z,31.80
2017-05-06T07:37:18.805Z,27.22
2017-05-06T07:39:45.574Z,26.57
2017-05-06T07:42:12.323Z,22.98
2017-05-06T07:44:39.381Z,24.70
2017-05-06T07:47:06.153Z,27.23
2017-05-06T07:49:32.904Z,27.82
2017-05-06T07:52:00.076Z,23.92
2017-05-06T07:54:26.825Z,27.40
2017-05-06T07:56:53.583Z,23.18
2017-05-06T07:59:20.620Z,27.32
2017-05-06T08:01:47.380Z,25.83
2017-05-06T08:04:14.142Z,24.22
2017-05-06T08:06:41.188Z,28.72
2017-05-06T08:09:07.948Z,23.83
2017-05-06T08:11:35.575Z,26.08
2017-05-06T08:14:04.091Z,25.02
2017-05-06T08:16:30.863Z,23.90
2017-05-06T08:18:58.463Z,26.13
2017-05-06T08:21:25.826Z,24.42
2017-05-06T08:23:52.593Z,22.10
2017-05-06T08:26:20.356Z,26.83
2017-05-06T08:28:47.916Z,22.97
2017-05-06T08:31:14.679Z,26.32
2017-05-06T08:33:41.440Z,23.42
2017-05-06T08:36:08.606Z,23.18
2017-05-06T08:38:35.589Z,23.50
2017-05-06T08:41:02.341Z,26.72
2017-05-06T08:43:33.274Z,23.22
2017-05-06T08:46:01.085Z,23.18
2017-05-06T08:48:27.849Z,24.28
2017-05-06T08:50:55.412Z,23.73
2017-05-06T08:53:24.677Z,25.23
2017-05-06T08:55:51.807Z,24.02
2017-05-06T08:58:19.764Z,19.75
2017-05-06T09:00:49.293Z,23.97
2017-05-06T09:03:17.849Z,25.02
2017-05-06T09:05:44.917Z,25.80
2017-05-06T09:08:12.117Z,26.95
2017-05-06T09:10:38.866Z,22.92
2017-05-06T09:13:06.225Z,21.98
2017-05-06T09:15:33.308Z,23.85
2017-05-06T09:18:00.077Z,25.57
2017-05-06T09:20:27.329Z,21.47
2017-05-06T09:22:54.121Z,23.80
2017-05-06T09:25:20.867Z,21.25
2017-05-06T09:27:48.166Z,25.70
2017-05-06T09:30:14.925Z,22.20
2017-05-06T09:32:41.680Z,23.85
2017-05-06T09:35:09.763Z,22.62
2017-05-06T09:37:36.869Z,24.33
2017-05-06T09:40:03.629Z,23.13
2017-05-06T09:42:30.751Z,21.40
2017-05-06T09:44:57.515Z,24.37
2017-05-06T09:47:24.286Z,21.43
2017-05-06T09:49:51.574Z,24.47
2017-05-06T09:52:18.328Z,22.07
2017-05-06T09:54:45.080Z,22.28
2017-05-06T09:57:12.125Z,20.70
2017-05-06T09:59:38.894Z,21.72
2017-05-06T10:02:05.657Z,21.47
2017-05-06T10:04:33.339Z,21.43
2017-05-06T10:07:00.097Z,25.17
2017-05-06T10:09:26.851Z,22.15
2017-05-06T10:11:54.168Z,21.57
2017-05-06T10:14:20.933Z,22.50
2017-05-06T10:16:48.190Z,24.77
2017-05-06T10:19:15.525Z,22.73
2017-05-06T10:21:42.285Z,21.73
2017-05-06T10:24:09.049Z,21.50
2017-05-06T10:26:36.325Z,23.45
2017-05-06T10:29:03.085Z,23.13
2017-05-06T10:31:29.844Z,19.52
2017-05-06T10:33:56.878Z,23.00
2017-05-06T10:36:23.859Z,20.57
2017-05-06T10:38:51.237Z,21.65
2017-05-06T10:41:19.780Z,20.25
2017-05-06T10:43:46.545Z,21.02
2017-05-06T10:46:13.319Z,20.22
2017-05-06T10:48:40.703Z,21.57
2017-05-06T10:51:07.464Z,21.23
2017-05-06T10:53:34.219Z,21.60
2017-05-06T10:56:01.261Z,18.95
2017-05-06T10:58:28.021Z,18.40
2017-05-06T11:00:54.782Z,19.13
2017-05-06T11:03:22.044Z,20.28
2017-05-06T11:05:48.813Z,21.75
2017-05-06T11:08:15.585Z,19.72
2017-05-06T11:10:44.526Z,19.65
2017-05-06T11:13:11.804Z,19.52
2017-05-06T11:15:38.565Z,20.22
2017-05-06T11:18:06.298Z,19.92
2017-05-06T11:20:33.061Z,19.03
2017-05-06T11:22:59.823Z,19.62
2017-05-06T11:25:26.907Z,18.73
2017-05-06T11:27:53.685Z,19.84
2017-05-06T11:30:20.445Z,18.40
2017-05-06T11:32:47.524Z,19.12
2017-05-06T11:35:14.288Z,17.05
2017-05-06T11:37:41.050Z,18.82
2017-05-06T11:40:09.099Z,17.05
2017-05-06T11:42:35.878Z,16.88
2017-05-06T11:45:02.697Z,20.38
2017-05-06T11:47:30.019Z,17.37
2017-05-06T11:49:56.786Z,16.08
2017-05-06T11:52:23.549Z,16.87
2017-05-06T11:54:51.189Z,16.92
2017-05-06T11:57:18.198Z,18.50
2017-05-06T11:59:44.966Z,16.92
2017-05-06T12:02:14.466Z,18.67
2017-05-06T12:04:41.247Z,16.17
2017-05-06T12:07:08.014Z,17.02
2017-05-06T12:09:35.069Z,17.65
2017-05-06T12:12:01.845Z,16.48
2017-05-06T12:14:28.613Z,16.68
2017-05-06T12:16:55.665Z,15.70
2017-05-06T12:19:22.443Z,17.50
2017-05-06T12:21:49.210Z,17.77
2017-05-06T12:24:16.335Z,18.02
2017-05-06T12:26:43.109Z,16.78
2017-05-06T12:29:09.878Z,15.32
2017-05-06T12:31:37.686Z,17.62
2017-05-06T12:34:04.452Z,14.97
2017-05-06T12:36:32.070Z,15.63
2017-05-06T12:38:59.538Z,12.20
2017-05-06T12:41:26.300Z,14.77
2017-05-06T12:43:53.141Z,15.85
2017-05-06T12:46:20.330Z,12.08
2017-05-06T12:48:47.312Z,16.20
2017-05-06T12:51:14.068Z,14.86
2017-05-06T12:53:41.189Z,13.16
2017-05-06T12:56:07.948Z,14.76
2017-05-06T12:58:34.699Z,13.16
2017-05-06T13:01:02.015Z,13.55
2017-05-06T13:03:28.775Z,14.57
2017-05-06T13:05:55.541Z,13.82
2017-05-06T13:08:23.725Z,16.00
2017-05-06T13:10:50.481Z,17.90
2017-05-06T13:13:17.238Z,16.12
2017-05-06T13:15:44.321Z,15.83
2017-05-06T13:18:11.079Z,15.77
2017-05-06T13:20:37.844Z,14.25
2017-05-06T13:23:04.881Z,14.17
2017-05-06T13:25:31.657Z,13.67
2017-05-06T13:28:01.394Z,13.87
2017-05-06T13:30:28.437Z,13.33
2017-05-06T13:32:55.198Z,13.65
2017-05-06T13:35:21.976Z,15.25
2017-05-06T13:37:49.543Z,14.03
2017-05-06T13:40:16.301Z,13.52
2017-05-06T13:42:43.072Z,13.72
2017-05-06T13:45:10.249Z,13.06
2017-05-06T13:47:37.043Z,13.97
2017-05-06T13:50:03.827Z,14.62
2017-05-06T13:52:31.458Z,15.10
2017-05-06T13:54:58.705Z,14.36
2017-05-06T13:57:25.931Z,12.44
2017-05-06T13:59:53.209Z,14.66
2017-05-06T14:02:19.969Z,15.58
2017-05-06T14:04:46.724Z,14.62
2017-05-06T14:07:13.905Z,12.72
2017-05-06T14:09:40.682Z,16.05
2017-05-06T14:12:07.454Z,14.78
2017-05-06T14:14:34.951Z,15.62
2017-05-06T14:17:01.722Z,15.55
2017-05-06T14:19:28.499Z,14.97
2017-05-06T14:21:55.539Z,15.43
2017-05-06T14:24:22.305Z,12.42
2017-05-06T14:26:49.073Z,12.77
2017-05-06T14:29:16.146Z,12.72
2017-05-06T14:31:43.237Z,13.92
2017-05-06T14:34:10.001Z,10.77
2017-05-06T14:36:37.305Z,14.80
2017-05-06T14:39:04.084Z,13.10
2017-05-06T14:41:30.842Z,13.12
2017-05-06T14:43:57.624Z,14.08
2017-05-06T14:46:24.389Z,13.40
2017-05-06T14:48:51.183Z,13.52
2017-05-06T14:51:17.950Z,12.48
2017-05-06T14:53:45.021Z,13.38
2017-05-06T14:56:11.781Z,13.03
2017-05-06T14:58:38.545Z,11.88
2017-05-06T15:01:05.592Z,13.10
2017-05-06T15:03:32.353Z,14.90
2017-05-06T15:05:59.109Z,12.58
2017-05-06T15:08:26.173Z,12.54
2017-05-06T15:10:52.934Z,11.66
2017-05-06T15:13:19.694Z,10.97
2017-05-06T15:15:46.749Z,11.42
2017-05-06T15:18:13.505Z,10.83
2017-05-06T15:20:40.260Z,11.43
2017-05-06T15:23:07.530Z,10.97
2017-05-06T15:25:34.293Z,12.10
2017-05-06T15:28:01.069Z,12.28
2017-05-06T15:30:28.147Z,11.88
2017-05-06T15:32:54.904Z,10.65
2017-05-06T15:35:21.664Z,11.12
2017-05-06T15:37:49.005Z,11.70
2017-05-06T15:40:15.764Z,11.62
2017-05-06T15:42:43.135Z,10.77
2017-05-06T15:45:10.340Z,11.63
2017-05-06T15:47:37.104Z,14.53
2017-05-06T15:50:03.869Z,12.13
2017-05-06T15:52:31.177Z,10.37
2017-05-06T15:54:57.936Z,12.85
2017-05-06T15:57:24.696Z,10.73
2017-05-06T15:59:51.877Z,13.62
2017-05-06T16:02:18.643Z,12.78
2017-05-06T16:04:45.404Z,14.18
2017-05-06T16:07:12.500Z,13.82
2017-05-06T16:09:39.265Z,14.33
2017-05-06T16:12:06.041Z,16.03
2017-05-06T16:14:33.165Z,13.68
2017-05-06T16:16:59.925Z,14.30
2017-05-06T16:19:29.726Z,16.22
2017-05-06T16:21:56.797Z,15.18
2017-05-06T16:24:23.552Z,15.02
2017-05-06T16:26:50.311Z,14.87
2017-05-06T16:29:17.368Z,14.23
2017-05-06T16:31:49.879Z,16.83
2017-05-06T16:34:16.640Z,15.60
2017-05-06T16:36:43.700Z,16.40
2017-05-06T16:39:10.462Z,15.58
2017-05-06T16:41:37.228Z,15.25
2017-05-06T16:44:04.292Z,16.50
2017-05-06T16:46:31.074Z,15.97
2017-05-06T16:48:57.824Z,16.70
2017-05-06T16:51:25.005Z,15.18
2017-05-06T16:53:51.769Z,18.53
2017-05-06T16:56:18.525Z,18.02
2017-05-06T16:58:45.837Z,16.53
2017-05-06T17:01:12.600Z,18.60
2017-05-06T17:03:39.366Z,17.68
2017-05-06T17:06:07.598Z,19.22
2017-05-06T17:08:34.387Z,19.57
2017-05-06T17:11:01.135Z,18.87
2017-05-06T17:13:28.828Z,19.47
2017-05-06T17:15:55.579Z,18.93
2017-05-06T17:18:22.353Z,18.82
2017-05-06T17:20:49.456Z,18.77
2017-05-06T17:23:16.213Z,17.28
2017-05-06T17:25:42.983Z,17.97
2017-05-06T17:28:10.188Z,16.18
2017-05-06T17:30:36.953Z,16.78
2017-05-06T17:33:03.708Z,16.88
2017-05-06T17:35:31.072Z,16.82
2017-05-06T17:37:57.842Z,17.38
2017-05-06T17:40:24.610Z,16.57
2017-05-06T17:42:51.645Z,16.67
2017-05-06T17:45:18.400Z,17.85
2017-05-06T17:47:45.169Z,15.65
2017-05-06T17:50:12.241Z,17.52
2017-05-06T17:52:39.003Z,18.17
2017-05-06T17:55:05.760Z,20.10
2017-05-06T17:57:32.833Z,14.98
2017-05-06T17:59:59.592Z,18.48
2017-05-06T18:02:26.350Z,16.47
2017-05-06T18:04:53.845Z,17.83
2017-05-06T18:07:20.613Z,16.35
2017-05-06T18:09:47.384Z,15.68
2017-05-06T18:12:14.612Z,17.87
2017-05-06T18:14:41.378Z,16.42
2017-05-06T18:17:08.177Z,16.35
2017-05-06T18:19:35.204Z,17.43
2017-05-06T18:22:01.963Z,16.55
2017-05-06T18:24:28.734Z,15.32
2017-05-06T18:26:55.821Z,17.23
2017-05-06T18:29:22.576Z,17.12
2017-05-06T18:31:49.333Z,17.48
2017-05-06T18:34:17.728Z,22.30
2017-05-06T18:36:44.500Z,19.35
2017-05-06T18:39:11.271Z,17.53
2017-05-06T18:41:38.523Z,19.22
2017-05-06T18:44:05.317Z,17.38
2017-05-06T18:46:32.082Z,18.15
2017-05-06T18:48:59.360Z,18.38
2017-05-06T18:51:26.113Z,19.20
2017-05-06T18:53:52.893Z,18.47
2017-05-06T18:56:20.169Z,17.30
2017-05-06T18:58:46.920Z,20.88
2017-05-06T19:01:13.682Z,18.70
2017-05-06T19:03:42.978Z,21.53
2017-05-06T19:06:09.754Z,25.12
2017-05-06T19:08:36.509Z,19.27
2017-05-06T19:11:03.893Z,20.63
2017-05-06T19:13:30.640Z,20.83
2017-05-06T19:15:57.397Z,19.07
2017-05-06T19:18:24.692Z,22.20
2017-05-06T19:20:51.444Z,20.43
2017-05-06T19:23:18.205Z,19.58
2017-05-06T19:25:45.392Z,20.17
2017-05-06T19:28:12.169Z,20.18
2017-05-06T19:30:38.920Z,22.28
2017-05-06T19:33:06.078Z,18.27
2017-05-06T19:35:32.851Z,22.07
2017-05-06T19:37:59.613Z,22.92
2017-05-06T19:40:26.713Z,21.48
2017-05-06T19:42:53.464Z,23.02
2017-05-06T19:45:20.222Z,21.28
2017-05-06T19:47:47.532Z,21.43
2017-05-06T19:50:14.291Z,23.58
2017-05-06T19:52:41.044Z,21.25
2017-05-06T19:55:09.324Z,21.48
2017-05-06T19:57:36.089Z,22.25
2017-05-06T20:00:02.831Z,22.77
2017-05-06T20:02:30.666Z,24.97
2017-05-06T20:04:57.745Z,20.93
2017-05-06T20:07:25.252Z,24.37
2017-05-06T20:09:52.610Z,25.20
2017-05-06T20:12:19.363Z,26.08
2017-05-06T20:14:46.131Z,28.50
2017-05-06T20:17:13.739Z,28.35
2017-05-06T20:19:41.033Z,25.58
2017-05-06T20:22:07.805Z,26.10
2017-05-06T20:24:35.722Z,24.03
2017-05-06T20:27:03.276Z,23.75
2017-05-06T20:29:30.063Z,26.22
2017-05-06T20:31:57.197Z,29.78
2017-05-06T20:34:23.951Z,27.10
2017-05-06T20:36:50.713Z,28.73
2017-05-06T20:39:18.535Z,26.22
2017-05-06T20:41:45.286Z,29.53
2017-05-06T20:44:12.041Z,26.60
2017-05-06T20:46:39.085Z,31.35
2017-05-06T20:49:06.070Z,27.30
2017-05-06T20:51:32.856Z,29.68
2017-05-06T20:54:00.329Z,29.75
2017-05-06T20:56:27.096Z,27.87
2017-05-06T20:58:53.847Z,29.25
2017-05-06T21:01:21.519Z,27.42
2017-05-06T21:03:48.268Z,31.70
2017-05-06T21:06:15.037Z,31.13
2017-05-06T21:08:43.124Z,31.13
2017-05-06T21:11:11.241Z,32.97
2017-05-06T21:13:38.257Z,30.07
2017-05-06T21:16:05.592Z,29.38
2017-05-06T21:18:32.350Z,31.27
2017-05-06T21:20:59.125Z,27.58
2017-05-06T21:23:26.547Z,24.43
2017-05-06T21:25:53.900Z,33.32
2017-05-06T21:28:21.581Z,30.43
2017-05-06T21:33:20.336Z,30.18
2017-05-06T21:35:49.313Z,28.05
2017-05-06T21:38:22.695Z,34.12
2017-05-06T21:40:49.463Z,34.12
2017-05-06T21:43:16.752Z,33.07
2017-05-06T21:45:43.514Z,33.38
2017-05-06T21:48:10.277Z,34.07
2017-05-06T21:50:42.288Z,32.75
2017-05-06T21:53:12.425Z,36.48
2017-05-06T21:55:39.202Z,33.30
2017-05-06T21:58:06.720Z,34.33
2017-05-06T22:00:36.080Z,31.32
2017-05-06T22:03:03.469Z,33.57
2017-05-06T22:05:41.153Z,40.95
2017-05-06T22:08:07.931Z,42.25
2017-05-06T22:10:34.701Z,36.17
2017-05-06T22:13:01.740Z,43.32
2017-05-06T22:15:28.967Z,40.18
2017-05-06T22:17:55.762Z,46.55
2017-05-06T22:20:23.437Z,44.08
2017-05-06T22:22:53.639Z,47.32
2017-05-06T22:25:20.401Z,54.12
2017-05-06T22:27:48.568Z,46.22
2017-05-06T22:30:15.333Z,41.58
2017-05-06T22:32:42.909Z,46.37
2017-05-06T22:35:10.058Z,52.83
2017-05-06T22:37:36.815Z,49.13
2017-05-06T22:40:03.565Z,49.42
2017-05-06T22:42:30.612Z,46.42
2017-05-06T22:44:57.637Z,46.88
2017-05-06T22:47:24.392Z,51.98
2017-05-06T22:49:51.583Z,49.75
2017-05-06T22:52:19.505Z,48.67
2017-05-06T22:54:46.262Z,51.70
2017-05-06T22:57:14.420Z,47.28
2017-05-06T22:59:42.293Z,45.27
2017-05-06T23:02:09.713Z,47.97
2017-05-06T23:04:37.297Z,48.17
2017-05-06T23:07:04.211Z,45.53
2017-05-06T23:09:31.452Z,49.48
2017-05-06T23:11:58.692Z,57.23
2017-05-06T23:14:25.442Z,48.12
2017-05-06T23:16:52.208Z,55.32
2017-05-06T23:19:19.513Z,56.55
2017-05-06T23:21:46.685Z,61.52
2017-05-06T23:24:13.449Z,57.38
2017-05-06T23:26:40.504Z,60.67
2017-05-06T23:29:07.271Z,54.28
2017-05-06T23:31:34.030Z,50.70
2017-05-06T23:34:01.185Z,54.72
2017-05-06T23:36:27.950Z,56.13
2017-05-06T23:38:54.711Z,57.85
2017-05-06T23:41:22.011Z,68.42
2017-05-06T23:43:48.789Z,62.80
2017-05-06T23:46:15.550Z,61.73
2017-05-06T23:48:42.845Z,67.05
2017-05-06T23:51:09.641Z,63.02
2017-05-06T23:53:36.403Z,64.27
2017-05-06T23:56:03.589Z,66.57
2017-05-06T23:58:30.358Z,58.00
